Estación de Nogales
Ultimos registro cada 15 minutos 44
| N° | Estación | Fecha / Hora | Temperatura | Humedad | Lluvia | Velocidad | Dirección | Radiación | Presion |
| 44 | Nogales | 07-05-2026 10:45 | 14 | 80,6 | 0 | 0 | 199 | 269,4 | 993,6 |
| 43 | Nogales | 07-05-2026 10:30 | 13,3 | 85,4 | 0 | 0 | 202 | 273,1 | 993,7 |
| 42 | Nogales | 07-05-2026 10:15 | 13,7 | 84,8 | 0 | 0 | 227 | 585,6 | 993,6 |
| 41 | Nogales | 07-05-2026 10:00 | 13,5 | 87 | 0 | 0 | 229 | 655,6 | 993,9 |
| 40 | Nogales | 07-05-2026 09:45 | 12,4 | 89,4 | 0 | 0 | 229 | 315,6 | 993,9 |
| 39 | Nogales | 07-05-2026 09:30 | 11,8 | 90,5 | 0 | 0 | 229 | 215,6 | 993,9 |
| 38 | Nogales | 07-05-2026 09:15 | 11,7 | 92,6 | 0 | 0 | 251 | 238,1 | 993,9 |
| 37 | Nogales | 07-05-2026 09:00 | 11,1 | 93,7 | 0 | 0 | 268 | 213,1 | 993,7 |
| 36 | Nogales | 07-05-2026 08:45 | 10,8 | 94,7 | 0 | 0 | 268 | 116,9 | 993,4 |
| 35 | Nogales | 07-05-2026 08:30 | 10,4 | 94,7 | 0 | 0 | 267 | 73,1 | 993,4 |
| 34 | Nogales | 07-05-2026 08:15 | 10,5 | 95 | 0 | 0 | 268 | 33,1 | 993,2 |
| 33 | Nogales | 07-05-2026 08:00 | 10,6 | 95,1 | 0 | 0 | 268 | 28,1 | 992,9 |
| 32 | Nogales | 07-05-2026 07:45 | 10,5 | 95,1 | 0 | 0 | 268 | 5,6 | 992,9 |
| 31 | Nogales | 07-05-2026 07:30 | 10,5 | 95,4 | 0 | 0 | 268 | 1,9 | 993 |
| 30 | Nogales | 07-05-2026 07:15 | 10,6 | 95,4 | 0 | 0 | 268 | 0,6 | 992,9 |
| 29 | Nogales | 07-05-2026 07:00 | 10,7 | 95,4 | 0 | 0 | 268 | 0,6 | 992,8 |
| 28 | Nogales | 07-05-2026 06:45 | 10,6 | 95,3 | 0 | 0 | 268 | 0,6 | 992,6 |
| 27 | Nogales | 07-05-2026 06:30 | 10,6 | 95,3 | 0 | 0 | 268 | 0,6 | 992,4 |
| 26 | Nogales | 07-05-2026 06:15 | 10,6 | 95 | 0 | 0 | 268 | 0,6 | 992,5 |
| 25 | Nogales | 07-05-2026 06:00 | 10,6 | 95 | 0 | 0 | 268 | 0,6 | 992,3 |
| 24 | Nogales | 07-05-2026 05:45 | 10,6 | 94,8 | 0 | 0 | 268 | 0,6 | 992,3 |
| 23 | Nogales | 07-05-2026 05:30 | 10,6 | 94,6 | 0 | 0 | 268 | 0,6 | 992,1 |
| 22 | Nogales | 07-05-2026 05:15 | 10,4 | 94,2 | 0 | 0 | 268 | 0,6 | 992 |
| 21 | Nogales | 07-05-2026 05:00 | 10,5 | 93,7 | 0 | 0 | 268 | 0,6 | 991,8 |
| 20 | Nogales | 07-05-2026 04:45 | 10,8 | 93,5 | 0 | 0 | 268 | 0,6 | 991,8 |
| 19 | Nogales | 07-05-2026 04:30 | 10,7 | 93,4 | 0 | 0 | 268 | 0,6 | 991,7 |
| 18 | Nogales | 07-05-2026 04:15 | 10,6 | 93,6 | 0 | 0 | 268 | 0,6 | 991,7 |
| 17 | Nogales | 07-05-2026 04:00 | 10,6 | 93,7 | 0 | 0,7 | 268 | 0,6 | 991,7 |
| 16 | Nogales | 07-05-2026 03:45 | 10,7 | 93,5 | 0 | 0,3 | 279 | 0,6 | 991,7 |
| 15 | Nogales | 07-05-2026 03:30 | 10,8 | 93,2 | 0 | 0,3 | 227 | 0,6 | 991,7 |
| 14 | Nogales | 07-05-2026 03:15 | 10,9 | 94 | 0 | 0,7 | 194 | 0,6 | 991,8 |
| 13 | Nogales | 07-05-2026 03:00 | 11 | 94,1 | 0 | 0,3 | 248 | 0,6 | 991,8 |
| 12 | Nogales | 07-05-2026 02:45 | 11,1 | 94,3 | 0 | 0 | 256 | 0,6 | 991,7 |
| 11 | Nogales | 07-05-2026 02:30 | 11 | 94,3 | 0 | 0,7 | 256 | 0,6 | 991,5 |
| 10 | Nogales | 07-05-2026 02:15 | 11,2 | 94,5 | 0 | 0,3 | 250 | 0,6 | 991,4 |
| 9 | Nogales | 07-05-2026 02:00 | 11,3 | 95 | 0 | 0,3 | 243 | 0,6 | 991,3 |
| 8 | Nogales | 07-05-2026 01:45 | 11,4 | 95 | 0 | 0 | 226 | 0,6 | 991,3 |
| 7 | Nogales | 07-05-2026 01:30 | 11,3 | 95,7 | 0 | 1 | 187 | 0,6 | 991,2 |
| 6 | Nogales | 07-05-2026 01:15 | 11,2 | 96,5 | 0 | 1,3 | 161 | 0,6 | 991,1 |
| 5 | Nogales | 07-05-2026 01:00 | 11,5 | 96,7 | 0 | 1 | 202 | 0,6 | 991,2 |
| 4 | Nogales | 07-05-2026 00:45 | 11,9 | 96,8 | 0 | 0 | 212 | 0,6 | 991 |
| 3 | Nogales | 07-05-2026 00:30 | 11,9 | 96,8 | 0 | 0 | 212 | 0,6 | 991 |
| 2 | Nogales | 07-05-2026 00:15 | 12,1 | 96,6 | 0 | 0 | 212 | 0,6 | 991 |
| 1 | Nogales | 07-05-2026 00:00 | 12,4 | 96,5 | 0 | 0 | 212 | 0,6 | 991 |